Aérodrome :
LOGIN :

S'inscrire | Disclaimer

   EN    FR    IT 

 










Légende :    VFR   VFR Marginal   IFR   IFR Intensif   IFR Très Intensif
Visi : 
Plafond : 
>= 8 km
>= 3000ft
5 à 8 km
1000 à 3000 ft
1500m à 5 km
500 à 1000 ft
800 à 1500m
200 à 500 ft
< 800m
< 200 ft
Symboles :   Orages  Brouillard  Fortes neiges  Fortes précipitations  Vent > 20 kt
SIGMETs :   Divers  Orages  Givrage  Turbulence  Onde Orograph.  Cendres Volcan.







- Altitude de l'aérodrome : 499 ft
- Code IATA : TLS
- Voir les cartes d'approche


LFBO - Toulouse / Blagnac

DERNIER METAR :
  • 280730Z AUTO 18008KT 9999 FEW012 SCT120 09/06 Q1006 NOSIG

METARs EXPIRÉS :
  • 280700Z AUTO 17007KT CAVOK 09/06 Q1006 NOSIG
  • 280630Z AUTO 18005KT 9999 FEW040 BKN130 BKN170 09/05 Q1006 NOSIG
  • 280600Z AUTO 20004KT 9999 FEW031 BKN039 BKN160 09/06 Q1007 NOSIG
  • 280530Z AUTO 18004KT 9999 FEW026 SCT031 BKN041 09/06 Q1007 NOSIG
  • 280500Z AUTO 20005KT 9999 BKN026 BKN039 BKN045 09/05 Q1007 NOSIG
  • 280430Z AUTO 22005KT 9999 OVC027 10/05 Q1007 NOSIG

TAF AMD TAF LFBO
Valide du 28 à 06h jusqu'au 01 à 12h UTC


280531Z 2806/0112 22006KT 9999 BKN030
BECMG 2810/2812 27016G28KT
TEMPO 2811/2813 28020G35KT 5000 RA SCT008 BKN015 BKN030
TEMPO 2813/2817 27020G35KT 4000 SHRA SCT012 BKN020CB
BECMG 0101/0103 26005KT
ATIS : +33 5 62 74 66 36
Pas de NOTAMs connus pour ce terrain.
2 SIGMETs publiés pour la FIR Bordeaux (LFBB) :
 
Turbulence forte
LFBB SIGMET 2 VALID 280800/281200 LFPW
LFBB BORDEAUX FIR/UIR SEV TURB FCST NW OF LINE N4245 E00000 - N4400 E00245 SFC/FL080 STNR NC=
Turbulence forte
LFBB SIGMET 1 VALID 280400/280800 LFPW
LFBB BORDEAUX FIR/UIR SEV TURB FCST WI N4245 W00100 - N4300 W00145 - N4630 W00130 - N4630 W00045 SFC/FL060 STNR NC=



MET'MAP, la Météo Aéronautique d'un coup d'oeil ! - Copyright ORBIFLY Décembre 2007 - Disclaimer

ORBIFLY MET'MAP TEAM :

Programmation & Développement : Alexandra Zaïnal
Conception & Développement : Baudouin d'Aumeries
Co-Programmation & Développement : Marc-Olivier Méhu
Soutien technique & logistique : Manuel Goepfert

Contact : metmap@orbifly.com




SOURCES & CREDITS :

   NOAA